createdAt,value
2023-03-06T00:02:11.401Z,13.85
2023-03-06T00:07:13.007Z,13.13
2023-03-06T00:12:14.642Z,14.70
2023-03-06T00:17:16.275Z,12.05
2023-03-06T00:22:17.904Z,10.50
2023-03-06T00:27:20.119Z,12.87
2023-03-06T00:32:22.236Z,13.40
2023-03-06T00:37:25.677Z,13.47
2023-03-06T00:42:27.431Z,13.67
2023-03-06T00:47:29.017Z,12.60
2023-03-06T00:52:30.660Z,15.60
2023-03-06T00:57:32.267Z,14.27
2023-03-06T01:02:34.140Z,13.70
2023-03-06T01:07:36.998Z,13.27
2023-03-06T01:12:38.656Z,14.77
2023-03-06T01:17:40.254Z,15.80
2023-03-06T01:22:42.077Z,15.70
2023-03-06T01:27:43.788Z,16.60
2023-03-06T01:32:45.681Z,18.73
2023-03-06T01:37:47.612Z,15.18
2023-03-06T01:42:52.484Z,14.70
2023-03-06T01:47:54.223Z,15.10
2023-03-06T01:52:59.707Z,16.83
2023-03-06T01:58:08.983Z,13.77
2023-03-06T02:03:21.569Z,16.43
2023-03-06T02:08:24.031Z,15.67
2023-03-06T02:13:25.715Z,14.37
2023-03-06T02:18:28.518Z,17.23
2023-03-06T02:23:55.135Z,18.10
2023-03-06T02:28:59.212Z,14.43
2023-03-06T02:34:13.858Z,17.53
2023-03-06T02:39:18.144Z,16.43
2023-03-06T02:44:21.326Z,17.90
2023-03-06T02:49:24.397Z,15.47
2023-03-06T02:54:27.825Z,15.77
2023-03-06T02:59:29.527Z,15.50
2023-03-06T03:04:32.644Z,18.90
2023-03-06T03:09:36.982Z,18.60
2023-03-06T03:14:39.098Z,17.40
2023-03-06T03:19:40.854Z,16.80
2023-03-06T03:24:42.652Z,15.97
2023-03-06T03:29:45.112Z,19.50
2023-03-06T03:34:47.010Z,16.57
2023-03-06T03:39:48.721Z,18.17
2023-03-06T03:44:50.616Z,20.80
2023-03-06T03:49:55.293Z,15.90
2023-03-06T03:54:57.871Z,16.07
2023-03-06T04:00:00.395Z,20.87
2023-03-06T04:05:16.184Z,18.60
2023-03-06T04:10:18.030Z,20.93
2023-03-06T04:15:19.828Z,19.37
2023-03-06T04:20:22.506Z,22.50
2023-03-06T04:25:24.775Z,19.40
2023-03-06T04:30:26.682Z,19.80
2023-03-06T04:35:28.719Z,23.73
2023-03-06T04:40:38.013Z,20.50
2023-03-06T04:45:39.795Z,21.63
2023-03-06T04:50:41.819Z,22.00
2023-03-06T04:55:43.424Z,22.47
2023-03-06T05:00:45.057Z,23.17
2023-03-06T05:05:46.783Z,22.60
2023-03-06T05:10:55.638Z,22.37
2023-03-06T05:16:02.767Z,21.87
2023-03-06T05:21:05.889Z,19.93
2023-03-06T05:26:13.103Z,21.70
2023-03-06T05:31:14.718Z,21.70
2023-03-06T05:36:16.350Z,20.57
2023-03-06T05:41:18.005Z,22.40
2023-03-06T05:46:19.620Z,22.57
2023-03-06T05:51:21.401Z,23.63
2023-03-06T05:56:23.075Z,28.13
2023-03-06T06:01:25.422Z,27.97
2023-03-06T06:06:27.297Z,27.37
2023-03-06T06:11:29.099Z,27.07
2023-03-06T06:16:31.137Z,25.73
2023-03-06T06:21:32.971Z,25.40
2023-03-06T06:26:34.785Z,24.30
2023-03-06T06:31:37.389Z,25.90
2023-03-06T06:36:39.576Z,24.17
2023-03-06T06:41:59.368Z,28.77
2023-03-06T06:47:24.091Z,28.07
2023-03-06T06:52:26.552Z,27.83
2023-03-06T06:57:28.415Z,29.03
2023-03-06T07:02:30.352Z,28.87
2023-03-06T07:07:36.646Z,34.88
2023-03-06T07:12:38.684Z,30.03
2023-03-06T07:17:40.561Z,34.22
2023-03-06T07:22:50.809Z,27.75
2023-03-06T07:27:54.915Z,33.40
2023-03-06T07:32:58.038Z,29.05
2023-03-06T07:38:00.017Z,30.05
2023-03-06T07:43:18.449Z,35.77
2023-03-06T07:48:25.110Z,32.33
2023-03-06T07:53:27.393Z,26.80
2023-03-06T07:58:29.243Z,29.17
2023-03-06T08:03:31.294Z,32.30
2023-03-06T08:08:35.563Z,27.45
2023-03-06T08:13:38.349Z,26.52
2023-03-06T08:18:40.302Z,29.00
2023-03-06T08:23:42.769Z,29.27
2023-03-06T08:28:44.850Z,25.40
2023-03-06T08:33:47.156Z,25.15
2023-03-06T08:38:48.992Z,27.33
2023-03-06T08:43:51.516Z,27.25
2023-03-06T08:48:53.571Z,21.23
2023-03-06T08:53:56.680Z,25.02
2023-03-06T08:59:00.597Z,27.92
2023-03-06T09:04:06.491Z,20.52
2023-03-06T09:09:08.952Z,22.73
2023-03-06T09:14:10.762Z,23.23
2023-03-06T09:19:12.574Z,23.52
2023-03-06T09:24:16.465Z,22.35
2023-03-06T09:29:18.388Z,22.20
2023-03-06T09:34:20.470Z,21.65
2023-03-06T09:39:22.358Z,21.67
2023-03-06T09:44:30.464Z,25.52
2023-03-06T09:50:05.084Z,21.73
2023-03-06T09:55:24.162Z,25.70
2023-03-06T10:00:35.796Z,23.05
2023-03-06T10:05:58.441Z,27.27
2023-03-06T10:11:03.764Z,22.08
2023-03-06T10:16:14.572Z,24.15
2023-03-06T10:21:29.841Z,20.77
2023-03-06T10:26:40.079Z,21.98
2023-03-06T10:31:53.764Z,24.55
2023-03-06T10:36:58.748Z,22.48
2023-03-06T10:42:00.570Z,22.55
2023-03-06T10:47:30.109Z,23.55
2023-03-06T10:52:35.602Z,22.40
2023-03-06T10:57:37.388Z,21.90
2023-03-06T11:02:41.204Z,27.60
2023-03-06T11:07:55.380Z,27.23
2023-03-06T11:13:00.277Z,28.10
2023-03-06T11:18:08.147Z,22.08
2023-03-06T11:23:18.004Z,25.90
2023-03-06T11:28:38.325Z,24.92
2023-03-06T11:33:47.583Z,21.60
2023-03-06T11:38:52.033Z,23.02
2023-03-06T11:44:00.751Z,23.48
2023-03-06T11:49:27.664Z,23.13
2023-03-06T11:54:29.536Z,27.20
2023-03-06T11:59:43.403Z,21.35
2023-03-06T12:05:01.210Z,19.05
2023-03-06T12:10:29.961Z,20.25
2023-03-06T12:15:56.732Z,20.13
2023-03-06T12:21:10.785Z,17.25
2023-03-06T12:26:54.840Z,16.50
2023-03-06T12:32:27.403Z,16.00
2023-03-06T12:38:10.937Z,14.63
2023-03-06T12:43:46.730Z,12.68
2023-03-06T12:49:31.410Z,11.70
2023-03-06T12:54:41.167Z,12.25
2023-03-06T12:59:48.039Z,11.73
2023-03-06T13:05:20.760Z,12.48
2023-03-06T13:10:27.065Z,11.63
2023-03-06T13:15:39.290Z,15.52
2023-03-06T13:20:45.070Z,15.65
2023-03-06T13:25:48.930Z,14.98
2023-03-06T13:30:52.678Z,14.98
2023-03-06T13:35:56.809Z,14.50
2023-03-06T13:41:25.736Z,15.07
2023-03-06T13:46:37.149Z,14.93
2023-03-06T13:52:25.606Z,16.50
2023-03-06T13:57:43.654Z,16.05
2023-03-06T14:02:51.793Z,17.67
2023-03-06T14:08:11.142Z,15.90
2023-03-06T14:13:17.888Z,17.65
2023-03-06T14:18:26.895Z,16.30
2023-03-06T14:23:42.682Z,16.35
2023-03-06T14:28:53.609Z,13.15
2023-03-06T14:33:56.618Z,13.82
2023-03-06T14:39:07.877Z,12.63
2023-03-06T14:44:21.550Z,13.95
2023-03-06T14:49:26.989Z,11.43
2023-03-06T14:54:31.754Z,13.43
2023-03-06T14:59:41.757Z,14.75
2023-03-06T15:04:47.644Z,12.40
2023-03-06T15:09:51.930Z,13.18
2023-03-06T15:15:10.498Z,12.90
2023-03-06T15:20:42.384Z,13.35
2023-03-06T15:26:03.639Z,14.77
2023-03-06T15:31:21.100Z,14.82
2023-03-06T15:36:29.728Z,16.58
2023-03-06T15:41:37.330Z,17.10
2023-03-06T15:46:39.268Z,18.52
2023-03-06T15:51:41.129Z,8.23
2023-03-06T15:56:46.222Z,11.88
2023-03-06T16:01:48.929Z,11.50
2023-03-06T16:06:50.710Z,11.38
2023-03-06T16:11:52.565Z,14.07
2023-03-06T16:16:55.096Z,14.10
2023-03-06T16:21:57.194Z,16.60
2023-03-06T16:27:01.532Z,18.33
2023-03-06T16:32:04.527Z,18.03
2023-03-06T16:37:09.227Z,20.87
2023-03-06T16:42:11.486Z,22.63
2023-03-06T16:47:13.301Z,20.77
2023-03-06T16:52:15.259Z,20.77
2023-03-06T16:57:17.568Z,24.93
2023-03-06T17:02:19.381Z,22.63
2023-03-06T17:07:21.154Z,26.97
2023-03-06T17:12:23.080Z,26.25
2023-03-06T17:17:24.911Z,27.25
2023-03-06T17:22:27.445Z,29.52
2023-03-06T17:27:29.270Z,30.43
2023-03-06T17:32:32.384Z,29.08
2023-03-06T17:37:34.427Z,31.38
2023-03-06T17:42:36.299Z,35.93
2023-03-06T17:47:38.270Z,32.15
2023-03-06T17:52:40.086Z,37.95
2023-03-06T17:57:41.931Z,33.95
2023-03-06T18:02:45.395Z,32.87
2023-03-06T18:07:47.449Z,35.30
2023-03-06T18:12:49.391Z,33.13
2023-03-06T18:17:51.624Z,34.80
2023-03-06T18:22:53.512Z,33.83
2023-03-06T18:27:55.334Z,30.90
2023-03-06T18:32:57.231Z,38.80
2023-03-06T18:37:59.101Z,36.47
2023-03-06T18:43:00.950Z,32.85
2023-03-06T18:48:04.971Z,35.70
2023-03-06T18:53:06.798Z,32.77
2023-03-06T18:58:08.623Z,34.00
2023-03-06T19:03:11.421Z,38.78
2023-03-06T19:08:14.490Z,33.67
2023-03-06T19:13:16.327Z,35.80
2023-03-06T19:18:18.314Z,36.00
2023-03-06T19:23:21.452Z,33.30
2023-03-06T19:28:23.446Z,33.47
2023-03-06T19:33:25.374Z,31.07
2023-03-06T19:38:27.222Z,34.33
2023-03-06T19:43:30.006Z,32.87
2023-03-06T19:48:31.841Z,32.17
2023-03-06T19:53:35.412Z,33.13
2023-03-06T19:58:38.378Z,33.30
2023-03-06T20:03:41.030Z,34.10
2023-03-06T20:08:43.426Z,31.83
2023-03-06T20:13:47.464Z,28.97
2023-03-06T20:18:49.679Z,35.50
2023-03-06T20:23:53.397Z,36.30
2023-03-06T20:28:55.469Z,33.80
2023-03-06T20:33:59.194Z,33.00
2023-03-06T20:39:03.826Z,33.90
2023-03-06T20:44:08.035Z,35.47
2023-03-06T20:49:11.443Z,41.47
2023-03-06T20:54:15.449Z,38.97
2023-03-06T20:59:18.529Z,39.43
2023-03-06T21:04:20.442Z,39.60
2023-03-06T21:09:22.317Z,34.63
2023-03-06T21:14:24.098Z,39.95
2023-03-06T21:19:27.407Z,45.45
2023-03-06T21:24:29.261Z,41.10
2023-03-06T21:29:31.391Z,40.23
2023-03-06T21:34:33.336Z,42.40
2023-03-06T21:39:35.142Z,35.73
2023-03-06T21:44:36.946Z,40.30
2023-03-06T21:49:38.779Z,32.55
2023-03-06T21:54:41.422Z,36.90
2023-03-06T21:59:43.247Z,39.08
2023-03-06T22:04:50.065Z,32.60
2023-03-06T22:09:53.320Z,35.03
2023-03-06T22:14:55.138Z,35.80
2023-03-06T22:19:57.051Z,36.10
2023-03-06T22:24:58.887Z,33.30
2023-03-06T22:30:00.719Z,32.67
2023-03-06T22:35:02.683Z,39.42
2023-03-06T22:40:04.885Z,35.67
2023-03-06T22:45:07.278Z,36.05
2023-03-06T22:50:10.159Z,35.97
2023-03-06T22:55:12.004Z,36.88
2023-03-06T23:00:14.726Z,35.93
2023-03-06T23:05:16.615Z,34.67
2023-03-06T23:10:19.896Z,31.63
2023-03-06T23:15:40.208Z,35.73
2023-03-06T23:21:00.584Z,31.63
2023-03-06T23:26:24.157Z,34.20
2023-03-06T23:31:29.260Z,32.17
2023-03-06T23:36:31.280Z,36.58
2023-03-06T23:41:33.137Z,34.23
2023-03-06T23:46:35.149Z,35.87
2023-03-06T23:51:37.308Z,39.07
2023-03-06T23:56:39.641Z,43.00
